aviador You're here:

KAMW Decoded Metar

AMES in IA, USA
Report Time2018-07-20 07:53:00
UTC Time2018-07-20 08:55:33
Flight Rules mvfr MVFR
Wind280° at 15 Gusting to 24 kt
W.Decomp.*RWY 31: 12.6 kt HW 8.2 kt LCW
RWY 19: 0.8 kt HW 15.0 kt RCW
W.Rank280° ranks 19
Current wind is above 280° avg. (8.9)
Visibility9999 m
Phenomena:N/A
Clouds:Overcast 027 Hf
Expected CloudBase > 2,000 ft AGL from Temp-Dew spread
Ceiling2,700 ft
Temp21°C (ISA +8)
Dew Point16°C (73% RH)
AAT17.6°C
QNH1006 hPa
Density Alt2,310 ft
Elevation915 ft
Report Wrong Elevation
Raw Report
KAMW 200753Z AUTO 28015G24KT 10SM OVC027 21/16 A2970 RMK AO2
SLP048 T02110161=

Extra information for KAMW:More info

Metar Taf Metar & Taf Last 4 Metars F.Rules Stats Wind Profile Meteogram Temp Stats Airport Information Weather charts Add Link Nearby VenuesMetar ALERT Operation Metar Decoded Social comments

AIRNAV info for KAMW